OEJN/JED METAR and TAF weather

Enter ICAO airport designator
Station Type Date Time Source
OEJN METAR 2021/03/02 13:00 UTC NOAA

OEJN 021300Z 29013KT 9999 BKN040 28/12 Q1012 NOSIG


Station Type Date Time Source
OEJN Decoded METAR 2021/03/02 13:00 UTC NOAA

Jeddah King Abdul Aziz International Airport , Saudi Arabia (OEJN) 21-42N 039-11E 17M
Mar 02, 2021 - 08:00 AM EST / 2021.03.02 1300 UTC
Wind: from the WNW (290 degrees) at 15 MPH (13 KT):0
Visibility: greater than 7 mile(s):0
Sky conditions: mostly cloudy
Temperature: 82 F (28 C)
Dew Point: 53 F (12 C)
Relative Humidity: 37%
Pressure (altimeter): 29.88 in. Hg (1012 hPa)
ob: OEJN 021300Z 29013KT 9999 BKN040 28/12 Q1012 NOSIG
cycle: 13

Station Type Date Time Source
OEJN TAF 2021/03/02 12:33 UTC NOAA

TAF OEJN 021100Z 0212/0318 34016KT 9999 SCT040
BECMG 0220/0222 02006KT

Example: see airport list